Time;durP1;ratioP1;P1;durP2;ratioP2;P2;SDS_P1;SDS_P2;PMS_P1;PMS_P2;Temp;Humidity;BMP_temperature;BMP_pressure;BME280_temperature;BME280_humidity;BME280_pressure;Samples;Min_cycle;Max_cycle;Signal;HPM_P1;HPM_P2
2024/01/24 00:01:21;;;;;;;5.50;1.35;;;;;;;14.96;78.83;101318.25;5027303;28;20025;-73
2024/01/24 00:03:46;;;;;;;5.57;1.45;;;;;;;14.99;78.33;101318.09;5022049;28;20025;-72
2024/01/24 00:06:11;;;;;;;3.50;1.13;;;;;;;14.95;79.00;101294.38;5027870;28;20595;-73
2024/01/24 00:08:37;;;;;;;5.90;1.45;;;;;;;15.13;77.83;101306.75;5011431;28;20158;-73
2024/01/24 00:11:02;;;;;;;4.32;1.17;;;;;;;15.11;77.57;101315.75;5030200;28;20437;-73
2024/01/24 00:13:28;;;;;;;6.88;2.35;;;;;;;15.13;77.87;101313.88;5034065;28;20037;-72
2024/01/24 00:15:53;;;;;;;4.25;1.10;;;;;;;15.18;77.20;101331.34;5032047;28;20476;-74
2024/01/24 00:18:18;;;;;;;3.30;1.73;;;;;;;15.15;77.21;101339.47;5009039;28;20120;-72
2024/01/24 00:20:44;;;;;;;1.85;1.23;;;;;;;15.20;77.46;101341.91;5027905;28;20055;-72
2024/01/24 00:23:10;;;;;;;1.45;1.00;;;;;;;15.23;76.69;101329.28;5029215;28;20067;-73
2024/01/24 00:25:35;;;;;;;3.78;1.90;;;;;;;15.32;76.53;101336.81;5027475;28;20112;-73
2024/01/24 00:28:00;;;;;;;4.20;1.35;;;;;;;15.30;76.57;101320.06;5027910;28;20037;-72
2024/01/24 00:30:26;;;;;;;4.40;1.17;;;;;;;15.10;77.04;101306.88;5027943;28;20508;-72
2024/01/24 00:32:51;;;;;;;2.47;1.20;;;;;;;15.12;77.19;101310.34;5028531;28;20059;-73
2024/01/24 00:35:16;;;;;;;3.25;1.25;;;;;;;15.05;77.48;101306.28;5031523;28;20025;-73
2024/01/24 00:37:42;;;;;;;1.65;0.80;;;;;;;15.02;77.48;101296.66;5025091;28;20036;-72
2024/01/24 00:40:08;;;;;;;1.55;0.93;;;;;;;15.13;77.04;101300.56;5028301;28;20024;-73
2024/01/24 00:42:33;;;;;;;2.22;0.98;;;;;;;15.06;77.51;101297.34;5011642;28;20120;-73
2024/01/24 00:44:58;;;;;;;4.22;1.25;;;;;;;15.15;77.14;101294.19;5029152;28;20037;-73
2024/01/24 00:47:24;;;;;;;1.90;1.08;;;;;;;15.22;76.59;101294.75;5027406;28;20037;-73
2024/01/24 00:49:49;;;;;;;3.03;1.17;;;;;;;15.39;76.10;101288.53;5032200;28;20430;-73
2024/01/24 00:52:14;;;;;;;1.58;0.80;;;;;;;15.39;75.35;101289.41;5031252;28;20078;-72
2024/01/24 00:54:40;;;;;;;2.65;1.00;;;;;;;15.42;75.46;101307.03;5025623;28;20029;-73
2024/01/24 00:57:05;;;;;;;1.10;0.98;;;;;;;15.33;76.45;101273.72;5031331;28;20055;-73
2024/01/24 00:59:30;;;;;;;2.80;0.90;;;;;;;15.22;77.85;101308.94;5034414;28;20135;-73
2024/01/24 01:01:59;;;;;;;1.58;0.93;;;;;;;15.28;77.90;101300.59;5028381;28;20034;-73
2024/01/24 01:04:24;;;;;;;1.77;0.95;;;;;;;15.28;77.19;101292.63;5039896;28;20389;-71
2024/01/24 01:06:50;;;;;;;1.77;1.50;;;;;;;14.80;84.35;101280.91;5024627;28;20033;-72
2024/01/24 01:09:15;;;;;;;1.63;1.20;;;;;;;14.57;87.39;101267.91;5028956;28;20090;-70
2024/01/24 01:11:40;;;;;;;1.38;1.05;;;;;;;14.43;86.76;101254.38;5034461;28;20520;-71
2024/01/24 01:14:06;;;;;;;4.53;1.35;;;;;;;14.70;84.69;101284.97;5029715;28;20032;-72
2024/01/24 01:16:31;;;;;;;1.98;0.90;;;;;;;14.89;82.37;101278.72;5025885;28;20037;-72
2024/01/24 01:18:56;;;;;;;1.80;1.20;;;;;;;14.50;83.51;101283.31;5029302;28;20021;-70
2024/01/24 01:21:21;;;;;;;1.63;1.00;;;;;;;14.57;83.60;101275.03;5027520;28;20764;-71
2024/01/24 01:23:47;;;;;;;1.13;0.95;;;;;;;14.47;83.44;101248.84;5015221;28;20021;-71
2024/01/24 01:26:13;;;;;;;1.27;1.10;;;;;;;14.50;83.80;101267.34;5009178;28;20021;-71
2024/01/24 01:28:38;;;;;;;4.93;1.20;;;;;;;14.60;83.23;101278.41;5036172;28;20144;-70
2024/01/24 01:31:04;;;;;;;1.30;1.20;;;;;;;14.45;84.38;101268.47;5029093;28;20156;-71
2024/01/24 01:33:29;;;;;;;2.45;1.15;;;;;;;14.62;83.21;101265.00;5025743;28;20036;-71
2024/01/24 01:35:55;;;;;;;1.60;0.90;;;;;;;14.51;83.77;101269.06;5026257;28;20029;-71
2024/01/24 01:38:20;;;;;;;1.08;0.85;;;;;;;14.73;82.67;101268.84;5025390;28;20551;-71
2024/01/24 01:40:45;;;;;;;1.30;1.08;;;;;;;14.89;81.96;101271.59;5028871;28;20035;-71
2024/01/24 01:43:14;;;;;;;0.80;0.80;;;;;;;14.90;81.49;101275.13;5033102;28;20024;-70
2024/01/24 01:45:40;;;;;;;1.73;0.90;;;;;;;14.74;82.25;101286.56;5029539;28;20476;-71
2024/01/24 01:48:07;;;;;;;1.98;0.95;;;;;;;14.62;83.15;101281.81;5023073;28;20083;-71
2024/01/24 01:50:33;;;;;;;1.55;0.98;;;;;;;14.68;83.01;101291.31;5009480;28;20030;-70
2024/01/24 01:53:00;;;;;;;1.90;0.90;;;;;;;14.66;83.17;101298.50;5027615;28;20052;-70
2024/01/24 01:55:26;;;;;;;2.03;0.80;;;;;;;14.79;82.77;101284.50;5031875;28;20076;-70
2024/01/24 01:57:52;;;;;;;1.30;0.82;;;;;;;14.58;83.73;101301.53;5024845;28;20793;-71
2024/01/24 02:00:20;;;;;;;2.47;1.13;;;;;;;14.43;86.21;101281.00;5024240;28;20570;-72
2024/01/24 02:02:47;;;;;;;1.20;1.10;;;;;;;14.30;89.19;101280.72;5028920;28;20669;-72
2024/01/24 02:05:14;;;;;;;2.15;1.02;;;;;;;14.27;89.80;101270.25;5012784;28;20025;-71
2024/01/24 02:07:44;;;;;;;1.02;0.82;;;;;;;14.19;89.96;101270.59;5034126;28;20025;-70
2024/01/24 02:10:14;;;;;;;1.00;1.00;;;;;;;14.11;91.34;101267.44;5030396;28;20032;-70
2024/01/24 02:12:39;;;;;;;1.25;0.90;;;;;;;14.08;91.86;101256.94;5029072;28;20033;-72
2024/01/24 02:15:06;;;;;;;2.13;1.02;;;;;;;13.99;92.34;101250.31;5033273;28;20022;-71
2024/01/24 02:17:31;;;;;;;2.17;1.10;;;;;;;13.89;94.81;101266.75;5032095;28;20029;-70
2024/01/24 02:19:57;;;;;;;2.03;1.45;;;;;;;13.96;92.88;101260.22;5019921;28;20152;-72
2024/01/24 02:22:28;;;;;;;0.82;0.82;;;;;;;13.81;94.22;101261.81;5032421;28;20485;-71
2024/01/24 02:24:53;;;;;;;0.80;0.80;;;;;;;13.94;93.96;101268.28;5031119;28;20041;-74
2024/01/24 02:27:19;;;;;;;0.60;0.60;;;;;;;14.15;92.91;101265.50;5026410;28;20029;-74
2024/01/24 02:29:44;;;;;;;1.48;0.93;;;;;;;13.86;94.71;101257.13;5029349;28;20480;-74
2024/01/24 02:32:09;;;;;;;2.25;1.00;;;;;;;13.73;95.56;101278.09;5027809;28;20504;-74
2024/01/24 02:34:35;;;;;;;1.63;1.00;;;;;;;13.76;95.09;101267.34;5024592;28;20080;-72
2024/01/24 02:37:00;;;;;;;0.70;0.70;;;;;;;13.71;95.30;101290.59;5028386;28;20389;-72
2024/01/24 02:39:25;;;;;;;0.82;0.82;;;;;;;13.43;97.55;101268.84;5014471;28;20040;-72
2024/01/24 02:41:51;;;;;;;1.08;0.98;;;;;;;13.42;98.81;101264.47;5026967;28;20029;-71
2024/01/24 02:44:16;;;;;;;1.17;0.90;;;;;;;13.86;95.38;101281.06;5032884;28;20531;-71
2024/01/24 02:46:41;;;;;;;1.52;0.75;;;;;;;13.93;94.95;101290.44;5011958;28;20124;-71
2024/01/24 02:49:07;;;;;;;1.30;0.70;;;;;;;14.04;93.87;101279.31;5028366;28;20461;-72
2024/01/24 02:51:32;;;;;;;0.88;0.85;;;;;;;13.90;94.45;101282.63;5011147;28;20030;-72
2024/01/24 02:53:57;;;;;;;0.98;0.68;;;;;;;13.99;94.12;101290.19;5029060;28;20055;-70
2024/01/24 02:56:23;;;;;;;0.70;0.70;;;;;;;13.86;94.70;101280.19;5030484;28;20063;-70
2024/01/24 02:58:48;;;;;;;0.60;0.60;;;;;;;13.84;94.99;101290.00;5025851;28;20053;-71
2024/01/24 03:01:15;;;;;;;1.50;0.80;;;;;;;14.07;93.85;101254.38;5038010;28;20396;-70
2024/01/24 03:03:41;;;;;;;0.60;0.60;;;;;;;14.09;93.75;101265.81;5030277;28;20104;-71
2024/01/24 03:06:07;;;;;;;0.70;0.70;;;;;;;14.17;92.93;101269.81;5025499;28;20445;-70
2024/01/24 03:08:55;;;;;;;0.90;0.90;;;;;;;14.25;92.19;101262.31;5013576;28;20025;-70
2024/01/24 03:11:20;;;;;;;1.00;1.00;;;;;;;14.26;91.77;101277.34;5027266;28;20037;-70
2024/01/24 03:13:45;;;;;;;1.40;1.27;;;;;;;14.17;91.96;101277.78;5031169;28;20094;-71
2024/01/24 03:16:11;;;;;;;1.40;1.30;;;;;;;14.32;91.06;101270.88;5035228;28;20031;-71
2024/01/24 03:18:37;;;;;;;1.73;1.27;;;;;;;14.31;91.16;101266.47;5032528;28;20033;-70
2024/01/24 03:21:08;;;;;;;3.90;1.60;;;;;;;14.37;90.12;101276.84;5032121;28;20025;-71
2024/01/24 03:23:34;;;;;;;1.47;1.37;;;;;;;14.38;89.74;101285.69;5030952;28;20044;-70
2024/01/24 03:26:00;;;;;;;1.10;1.10;;;;;;;14.44;88.32;101288.88;5030424;28;20300;-70
2024/01/24 03:28:25;;;;;;;1.90;0.95;;;;;;;14.38;87.57;101309.63;5031663;28;20400;-70
2024/01/24 03:30:51;;;;;;;1.48;1.10;;;;;;;14.58;86.34;101311.31;5030279;28;20443;-71
2024/01/24 03:33:17;;;;;;;2.08;0.93;;;;;;;14.64;85.50;101327.88;5031384;28;20041;-70
2024/01/24 03:35:42;;;;;;;1.08;0.98;;;;;;;14.54;86.11;101322.13;5021346;28;20033;-70
2024/01/24 03:38:08;;;;;;;1.23;1.13;;;;;;;14.47;85.88;101323.31;5031635;28;20067;-71
2024/01/24 03:40:33;;;;;;;1.58;1.00;;;;;;;14.73;83.75;101334.50;5011997;28;20029;-71
2024/01/24 03:42:58;;;;;;;2.30;1.33;;;;;;;14.55;85.15;101349.59;5028020;28;20060;-71
2024/01/24 03:45:24;;;;;;;2.10;1.10;;;;;;;14.55;84.39;101320.34;5029796;28;20037;-74
2024/01/24 03:47:49;;;;;;;1.08;0.95;;;;;;;14.63;82.64;101338.56;5017013;28;20079;-75
2024/01/24 03:50:15;;;;;;;1.23;1.10;;;;;;;14.66;82.19;101343.75;5028829;28;20049;-74
2024/01/24 03:52:40;;;;;;;3.55;1.08;;;;;;;14.74;81.12;101357.56;5030119;28;20079;-76
2024/01/24 03:55:06;;;;;;;2.53;1.17;;;;;;;14.69;80.98;101349.78;5031019;28;20108;-71
2024/01/24 03:57:31;;;;;;;3.22;1.00;;;;;;;14.74;79.79;101338.91;5028155;28;20416;-70
2024/01/24 03:59:56;;;;;;;4.25;1.05;;;;;;;14.74;78.51;101355.75;5028849;28;20469;-71
2024/01/24 04:02:22;;;;;;;3.75;1.10;;;;;;;14.48;79.36;101370.31;5031153;28;20036;-72
2024/01/24 04:04:47;;;;;;;3.58;1.10;;;;;;;14.77;78.00;101349.41;5032183;28;20120;-71
2024/01/24 04:07:12;;;;;;;5.57;1.67;;;;;;;14.71;78.15;101347.03;5029448;28;20068;-71
2024/01/24 04:09:38;;;;;;;7.82;1.55;;;;;;;14.73;76.70;101338.03;5032100;28;20053;-71
2024/01/24 04:12:04;;;;;;;4.78;1.27;;;;;;;14.77;76.03;101352.91;5031666;28;20441;-70
2024/01/24 04:14:29;;;;;;;7.40;1.65;;;;;;;14.72;75.23;101341.63;5011407;28;20052;-71
2024/01/24 04:16:54;;;;;;;5.68;1.33;;;;;;;14.75;74.22;101322.00;5032001;28;20016;-70
2024/01/24 04:19:20;;;;;;;6.82;1.88;;;;;;;14.73;73.63;101353.16;5026728;28;20028;-71
2024/01/24 04:21:45;;;;;;;11.55;2.00;;;;;;;14.54;73.38;101347.88;5028442;28;20036;-71
2024/01/24 04:24:10;;;;;;;6.82;1.83;;;;;;;14.91;72.77;101343.38;5014080;28;20029;-72
2024/01/24 04:26:36;;;;;;;10.13;2.15;;;;;;;14.77;72.48;101357.38;5029133;28;20449;-71
2024/01/24 04:29:02;;;;;;;6.32;1.88;;;;;;;14.70;72.64;101370.16;5033662;28;20054;-71
2024/01/24 04:31:27;;;;;;;8.20;1.85;;;;;;;14.46;73.33;101388.13;5007928;28;20029;-71
2024/01/24 04:33:52;;;;;;;7.97;1.45;;;;;;;14.62;72.23;101417.53;5017371;28;20495;-71
2024/01/24 04:36:17;;;;;;;13.70;2.30;;;;;;;14.53;71.92;101405.53;5030134;28;20572;-70
2024/01/24 04:38:43;;;;;;;8.48;1.83;;;;;;;14.62;70.82;101382.94;5009453;28;20036;-70
2024/01/24 04:41:09;;;;;;;9.95;2.00;;;;;;;14.73;70.98;101406.38;5028656;28;20029;-70
2024/01/24 04:43:35;;;;;;;10.63;2.30;;;;;;;14.41;71.19;101389.25;5018288;28;20039;-70
2024/01/24 04:46:00;;;;;;;12.43;2.47;;;;;;;14.33;71.95;101421.56;5030844;28;20073;-71
2024/01/24 04:48:25;;;;;;;15.00;3.17;;;;;;;14.16;72.10;101403.72;5030212;28;20028;-70
2024/01/24 04:50:50;;;;;;;12.60;2.70;;;;;;;14.13;72.12;101418.94;5023020;28;20044;-70
2024/01/24 04:53:16;;;;;;;7.93;1.90;;;;;;;14.39;70.83;101412.41;5021037;28;20026;-70
2024/01/24 04:55:41;;;;;;;8.88;2.47;;;;;;;14.10;71.27;101414.63;5026998;28;20025;-71
2024/01/24 04:58:06;;;;;;;12.60;2.63;;;;;;;14.14;71.67;101402.94;5027935;28;20033;-70
2024/01/24 05:00:32;;;;;;;11.60;2.60;;;;;;;14.00;71.66;101395.59;5027681;28;20171;-70
2024/01/24 05:02:57;;;;;;;19.15;3.00;;;;;;;14.08;71.07;101394.34;5034086;28;20122;-70
2024/01/24 05:05:22;;;;;;;15.68;2.97;;;;;;;14.00;71.12;101403.56;5034055;28;20033;-70
2024/01/24 05:07:48;;;;;;;12.25;3.03;;;;;;;14.37;69.97;101396.53;5032060;28;20547;-70
2024/01/24 05:10:14;;;;;;;16.08;2.83;;;;;;;14.58;68.85;101409.78;5025641;28;20041;-71
2024/01/24 05:12:39;;;;;;;13.20;3.25;;;;;;;14.38;69.77;101418.69;5033396;28;20384;-70
2024/01/24 05:15:08;;;;;;;16.63;2.80;;;;;;;14.67;68.61;101434.16;5029994;28;20024;-73
2024/01/24 05:17:33;;;;;;;14.10;3.25;;;;;;;14.33;68.35;101434.84;5028521;28;20366;-74
2024/01/24 05:19:58;;;;;;;20.27;3.20;;;;;;;14.23;68.90;101453.03;5027010;28;20020;-73
2024/01/24 05:22:24;;;;;;;19.05;3.33;;;;;;;14.19;69.06;101454.09;5029636;28;20028;-74
2024/01/24 05:24:49;;;;;;;16.55;3.75;;;;;;;14.23;67.74;101460.16;5032301;28;20025;-73
2024/01/24 05:27:15;;;;;;;11.90;2.97;;;;;;;14.21;66.35;101468.19;5023567;28;20524;-75
2024/01/24 05:29:41;;;;;;;15.07;2.63;;;;;;;14.27;66.76;101451.09;5028848;28;20041;-73
2024/01/24 05:32:06;;;;;;;18.85;3.58;;;;;;;14.28;66.86;101451.03;5026916;28;20029;-73
2024/01/24 05:34:32;;;;;;;16.25;3.30;;;;;;;14.22;66.69;101463.72;5025223;28;20536;-74
2024/01/24 05:36:57;;;;;;;20.13;2.92;;;;;;;14.25;67.05;101459.13;5032986;28;20029;-74
2024/01/24 05:39:23;;;;;;;17.25;3.83;;;;;;;14.26;66.75;101457.34;5027578;28;20132;-73
2024/01/24 05:41:48;;;;;;;20.35;4.22;;;;;;;14.22;66.87;101477.91;5030783;28;20110;-74
2024/01/24 05:44:13;;;;;;;23.60;3.88;;;;;;;14.19;67.77;101479.84;5035119;28;20572;-73
2024/01/24 05:46:38;;;;;;;19.50;3.50;;;;;;;14.15;67.76;101463.16;5015239;28;20034;-74
2024/01/24 05:49:07;;;;;;;21.63;3.45;;;;;;;14.11;66.86;101472.19;5035195;28;20025;-73
2024/01/24 05:51:32;;;;;;;17.02;4.63;;;;;;;14.08;67.29;101476.78;5032195;28;20049;-73
2024/01/24 05:53:57;;;;;;;14.60;3.03;;;;;;;14.07;68.07;101475.06;5034933;28;20122;-73
2024/01/24 05:56:22;;;;;;;21.98;3.80;;;;;;;14.00;67.79;101479.78;5036557;28;20103;-73
2024/01/24 05:58:48;;;;;;;11.93;3.47;;;;;;;13.95;68.15;101471.16;5029825;28;20559;-73
2024/01/24 06:01:13;;;;;;;15.88;3.13;;;;;;;13.92;67.68;101463.31;5030821;28;20037;-73
2024/01/24 06:03:40;;;;;;;18.33;3.08;;;;;;;13.94;67.33;101470.31;5031289;28;20556;-70
2024/01/24 06:06:06;;;;;;;15.48;3.35;;;;;;;13.91;66.99;101453.63;5034605;28;20057;-70
2024/01/24 06:08:31;;;;;;;17.67;3.95;;;;;;;13.95;66.93;101497.75;5035012;28;20060;-72
2024/01/24 06:10:57;;;;;;;20.58;4.38;;;;;;;13.93;67.05;101507.56;5031015;28;20366;-70
2024/01/24 06:13:22;;;;;;;16.65;3.40;;;;;;;13.97;67.22;101515.34;5040038;28;20109;-70
2024/01/24 06:15:47;;;;;;;15.88;3.22;;;;;;;13.93;66.77;101510.22;5034699;28;20029;-71
2024/01/24 06:18:13;;;;;;;21.75;4.45;;;;;;;13.95;65.76;101511.03;5036892;28;20026;-71
2024/01/24 06:20:38;;;;;;;19.33;4.20;;;;;;;14.01;65.93;101526.72;5030753;28;20029;-71
2024/01/24 06:23:03;;;;;;;18.52;3.15;;;;;;;13.98;66.05;101543.66;5031890;28;20032;-71
2024/01/24 06:25:29;;;;;;;26.13;4.43;;;;;;;13.94;65.79;101538.53;5033461;28;20625;-73
2024/01/24 06:27:54;;;;;;;19.85;3.10;;;;;;;13.87;65.90;101555.69;5029529;28;20060;-73
2024/01/24 06:30:23;;;;;;;15.65;3.17;;;;;;;13.82;66.40;101553.22;5027781;28;20496;-73
2024/01/24 06:32:48;;;;;;;20.92;4.90;;;;;;;13.75;65.06;101562.38;5029981;28;20064;-75
2024/01/24 06:35:14;;;;;;;19.48;3.90;;;;;;;13.80;64.61;101581.63;5029430;28;20352;-74
2024/01/24 06:37:39;;;;;;;18.88;3.75;;;;;;;13.78;65.28;101599.47;5034860;28;20036;-73
2024/01/24 06:40:05;;;;;;;17.77;3.80;;;;;;;13.74;64.84;101598.72;5032814;28;20272;-74
2024/01/24 06:42:31;;;;;;;16.27;3.55;;;;;;;13.71;64.96;101603.31;5036319;28;20029;-74
2024/01/24 06:44:56;;;;;;;21.20;5.30;;;;;;;13.67;65.12;101613.19;5031727;28;20392;-73
2024/01/24 06:47:22;;;;;;;20.33;6.50;;;;;;;13.68;64.55;101616.72;5030717;28;20157;-73
2024/01/24 06:49:47;;;;;;;21.95;4.20;;;;;;;13.74;64.76;101638.56;5027214;28;20033;-73
2024/01/24 06:52:12;;;;;;;22.05;4.60;;;;;;;13.67;64.99;101628.28;5036229;28;20178;-74
2024/01/24 06:54:37;;;;;;;26.05;3.97;;;;;;;13.64;64.62;101663.78;5025077;28;20108;-73
2024/01/24 06:57:03;;;;;;;28.40;4.47;;;;;;;13.53;64.58;101674.84;5031766;28;20026;-73
2024/01/24 06:59:30;;;;;;;18.05;4.43;;;;;;;13.52;64.02;101653.63;5030914;28;20048;-74
2024/01/24 07:01:55;;;;;;;26.05;5.32;;;;;;;13.42;64.63;101668.22;5027559;28;20124;-74
2024/01/24 07:04:21;;;;;;;28.23;4.03;;;;;;;13.49;64.12;101661.75;5012020;28;20048;-75
2024/01/24 07:06:46;;;;;;;26.88;5.75;;;;;;;13.34;64.74;101633.13;5034791;28;20381;-75
2024/01/24 07:09:12;;;;;;;24.98;4.70;;;;;;;13.31;64.71;101649.19;5031684;28;20036;-74
2024/01/24 07:11:39;;;;;;;26.80;5.20;;;;;;;13.34;65.11;101665.00;5030697;28;20570;-75
2024/01/24 07:14:05;;;;;;;19.67;4.28;;;;;;;13.22;63.94;101671.63;5035977;28;20359;-74
2024/01/24 07:16:30;;;;;;;23.70;4.50;;;;;;;13.19;64.13;101680.53;5029921;28;20051;-74
2024/01/24 07:18:56;;;;;;;18.23;5.20;;;;;;;13.07;64.15;101696.94;5026311;28;20033;-74
2024/01/24 07:21:21;;;;;;;24.77;3.83;;;;;;;13.17;63.41;101710.75;5032561;28;20040;-78
2024/01/24 07:23:46;;;;;;;21.52;4.55;;;;;;;13.11;63.99;101725.13;5034635;28;20124;-73
2024/01/24 07:26:11;;;;;;;18.40;4.13;;;;;;;13.14;64.35;101705.53;5028773;28;20022;-73
2024/01/24 07:28:37;;;;;;;22.58;4.22;;;;;;;13.17;64.20;101695.69;5032303;28;20045;-74
2024/01/24 07:31:02;;;;;;;32.47;4.88;;;;;;;13.06;64.41;101702.31;5035891;28;20582;-74
2024/01/24 07:33:27;;;;;;;25.60;4.55;;;;;;;13.11;64.35;101706.53;5027070;28;20059;-74
2024/01/24 07:35:53;;;;;;;27.20;4.95;;;;;;;13.05;64.34;101714.69;5031384;28;20017;-74
2024/01/24 07:38:18;;;;;;;23.35;3.88;;;;;;;13.09;65.06;101724.28;5031323;28;20032;-73
2024/01/24 07:40:44;;;;;;;22.17;4.10;;;;;;;12.98;64.35;101716.72;5037660;28;20109;-73
2024/01/24 07:43:09;;;;;;;26.58;5.30;;;;;;;12.96;64.76;101726.53;5031783;28;20036;-74
2024/01/24 07:45:36;;;;;;;29.15;4.85;;;;;;;12.86;65.23;101716.28;5030880;28;20031;-74
2024/01/24 07:48:01;;;;;;;23.45;5.28;;;;;;;12.77;64.33;101718.34;5029762;28;20036;-74
2024/01/24 07:50:27;;;;;;;24.80;4.72;;;;;;;12.76;63.85;101737.84;5029010;28;20461;-73
2024/01/24 07:52:52;;;;;;;29.52;4.93;;;;;;;12.75;63.67;101753.81;5028455;28;20504;-73
2024/01/24 07:55:18;;;;;;;26.33;4.72;;;;;;;12.76;63.42;101745.81;5030948;28;20026;-74
2024/01/24 07:57:43;;;;;;;28.05;4.45;;;;;;;12.70;62.78;101796.44;5032339;28;20361;-76
2024/01/24 08:00:15;;;;;;;26.40;4.35;;;;;;;12.84;61.92;101750.00;5021441;28;20033;-73
2024/01/24 08:02:42;;;;;;;26.98;5.68;;;;;;;12.76;62.46;101748.47;5025690;28;20421;-73
2024/01/24 08:05:08;;;;;;;23.40;5.32;;;;;;;12.66;61.68;101757.66;5027478;28;20036;-73
2024/01/24 08:07:33;;;;;;;21.27;5.07;;;;;;;12.77;62.08;101770.53;5014037;28;20033;-73
2024/01/24 08:09:58;;;;;;;26.55;4.32;;;;;;;12.77;62.18;101751.97;5024940;28;20029;-73
2024/01/24 08:12:24;;;;;;;19.13;4.32;;;;;;;12.82;60.96;101757.13;5028185;28;20030;-74
2024/01/24 08:14:49;;;;;;;27.30;5.45;;;;;;;12.85;61.07;101772.94;5038543;28;20100;-75
2024/01/24 08:17:15;;;;;;;25.55;5.28;;;;;;;12.86;61.24;101774.66;5031610;28;20217;-75
2024/01/24 08:19:40;;;;;;;22.20;5.07;;;;;;;12.85;61.53;101791.53;5011411;28;20083;-75
2024/01/24 08:22:06;;;;;;;27.55;5.18;;;;;;;12.82;61.44;101800.44;5015253;28;20040;-75
2024/01/24 08:24:34;;;;;;;20.90;4.95;;;;;;;12.90;61.21;101808.16;5027239;28;20527;-73
2024/01/24 08:26:59;;;;;;;23.35;5.00;;;;;;;12.96;60.88;101800.88;5027108;28;20390;-72
2024/01/24 08:29:27;;;;;;;27.08;4.10;;;;;;;13.07;61.01;101815.53;5038080;28;20045;-72
2024/01/24 08:31:53;;;;;;;29.80;4.70;;;;;;;13.09;61.19;101803.06;5031318;28;20511;-72
2024/01/24 08:34:18;;;;;;;25.05;4.78;;;;;;;13.11;61.28;101817.19;5027732;28;20060;-72
2024/01/24 08:36:44;;;;;;;27.77;5.57;;;;;;;13.18;61.33;101808.91;5026180;28;20029;-73
2024/01/24 08:39:10;;;;;;;23.23;4.95;;;;;;;13.09;60.30;101813.69;5028456;28;20064;-73
2024/01/24 08:41:36;;;;;;;26.77;4.32;;;;;;;13.25;60.88;101834.38;5031283;28;20052;-72
2024/01/24 08:44:02;;;;;;;33.50;4.38;;;;;;;13.14;60.19;101849.78;5008927;28;20029;-76
2024/01/24 08:46:27;;;;;;;24.67;4.93;;;;;;;13.16;60.86;101833.81;5025592;28;20024;-75
2024/01/24 08:48:52;;;;;;;25.30;4.55;;;;;;;13.36;60.50;101854.38;5025158;28;20338;-75
2024/01/24 08:51:18;;;;;;;27.02;4.43;;;;;;;13.28;60.39;101868.78;5028487;28;20047;-76
2024/01/24 08:53:43;;;;;;;24.80;4.65;;;;;;;13.45;60.56;101851.41;5031428;28;20034;-74
2024/01/24 08:56:09;;;;;;;16.50;3.88;;;;;;;13.44;59.89;101853.19;5033799;28;20029;-74
2024/01/24 08:58:36;;;;;;;27.60;5.93;;;;;;;13.30;59.89;101852.81;5027628;28;20044;-73
2024/01/24 09:01:02;;;;;;;17.05;5.32;;;;;;;13.16;60.72;101845.28;5033104;28;20033;-73
2024/01/24 09:03:27;;;;;;;27.67;4.95;;;;;;;13.15;60.63;101856.84;5032314;28;20101;-75
2024/01/24 09:05:52;;;;;;;28.33;5.32;;;;;;;13.23;60.99;101885.81;5033877;28;20488;-72
2024/01/24 09:08:18;;;;;;;26.10;4.53;;;;;;;13.21;60.90;101891.13;5027745;28;20549;-72
2024/01/24 09:10:43;;;;;;;25.17;5.38;;;;;;;13.24;60.46;101882.22;5032758;28;20566;-72
2024/01/24 09:13:08;;;;;;;23.27;4.40;;;;;;;13.19;59.99;101914.22;5038114;28;20067;-71
2024/01/24 09:15:34;;;;;;;24.80;5.35;;;;;;;13.07;60.96;101884.56;5034896;28;20166;-71
2024/01/24 09:17:59;;;;;;;29.48;4.93;;;;;;;13.37;60.32;101872.91;5037176;28;20127;-72
2024/01/24 09:20:24;;;;;;;25.90;4.25;;;;;;;13.26;60.44;101883.06;5041658;28;20036;-71
2024/01/24 09:22:50;;;;;;;22.95;4.47;;;;;;;13.26;59.71;101893.69;5035409;28;20036;-72
2024/01/24 09:25:16;;;;;;;26.67;4.63;;;;;;;13.35;59.87;101892.50;5035853;28;20592;-72
2024/01/24 09:27:42;;;;;;;21.63;4.07;;;;;;;13.65;58.73;101911.78;5012932;28;20025;-72
2024/01/24 09:30:07;;;;;;;31.95;6.25;;;;;;;13.84;58.38;101915.50;5025779;28;20404;-71
2024/01/24 09:32:32;;;;;;;26.40;5.65;;;;;;;14.20;57.79;101928.38;5029666;28;20041;-72
2024/01/24 09:34:58;;;;;;;23.05;6.13;;;;;;;13.86;58.09;101958.88;5032961;28;20064;-75
2024/01/24 09:37:23;;;;;;;20.88;4.85;;;;;;;13.77;57.49;101921.97;5015591;28;20561;-75
2024/01/24 09:39:49;;;;;;;24.08;4.95;;;;;;;13.81;58.73;101936.03;5032754;28;20040;-75
2024/01/24 09:42:20;;;;;;;24.95;4.70;;;;;;;13.92;59.66;101949.78;5034627;28;20384;-74
2024/01/24 09:44:50;;;;;;;24.05;4.88;;;;;;;14.43;56.72;101951.44;5011160;28;20034;-75
2024/01/24 09:47:22;;;;;;;14.20;4.03;;;;;;;14.46;57.68;101959.31;5028216;28;20474;-75
2024/01/24 09:49:48;;;;;;;20.38;4.82;;;;;;;14.25;58.08;101951.19;5033043;28;20031;-74
2024/01/24 09:52:16;;;;;;;30.58;5.38;;;;;;;14.49;57.19;101956.53;5030973;28;20033;-74
2024/01/24 09:54:42;;;;;;;28.42;5.43;;;;;;;14.59;56.77;101938.41;5029722;28;20052;-75
2024/01/24 09:57:08;;;;;;;21.08;5.20;;;;;;;14.38;56.84;101972.03;5031587;28;20465;-75
2024/01/24 09:59:33;;;;;;;24.90;6.10;;;;;;;14.52;56.89;101977.72;5025752;28;20030;-74
2024/01/24 10:01:59;;;;;;;21.95;5.00;;;;;;;14.53;56.49;101980.31;5029421;28;20026;-75
2024/01/24 10:04:25;;;;;;;29.00;5.15;;;;;;;15.07;55.72;101980.88;5015360;28;20037;-74
2024/01/24 10:06:52;;;;;;;20.67;3.65;;;;;;;14.96;54.87;101980.41;5012163;28;20029;-76
2024/01/24 10:09:19;;;;;;;30.23;5.22;;;;;;;15.07;54.79;102014.63;5015769;28;20366;-75
2024/01/24 10:11:44;;;;;;;20.60;4.05;;;;;;;15.59;53.81;101984.00;5028929;28;20144;-75
2024/01/24 10:14:11;;;;;;;25.77;4.80;;;;;;;16.32;52.10;102014.63;5029824;28;20049;-75
2024/01/24 10:16:36;;;;;;;19.83;3.38;;;;;;;16.29;51.41;101994.25;5025576;28;20066;-73
2024/01/24 10:19:02;;;;;;;34.40;5.45;;;;;;;16.22;51.84;102011.47;5024956;28;20029;-71
2024/01/24 10:21:27;;;;;;;20.75;3.70;;;;;;;16.39;51.55;101999.19;5028204;28;20409;-72
2024/01/24 10:23:54;;;;;;;27.10;5.22;;;;;;;16.78;50.17;102009.81;5013213;28;20032;-73
2024/01/24 10:26:20;;;;;;;26.17;4.70;;;;;;;16.99;49.29;102002.59;5031074;28;20037;-76
2024/01/24 10:28:45;;;;;;;22.92;5.05;;;;;;;16.60;49.29;102003.53;5030558;28;20505;-75
2024/01/24 10:31:11;;;;;;;21.63;3.75;;;;;;;16.62;50.00;102001.66;5031424;28;20539;-76
2024/01/24 10:33:37;;;;;;;24.60;5.10;;;;;;;16.61;50.58;102023.94;5032903;28;20535;-75
2024/01/24 10:36:03;;;;;;;23.63;5.25;;;;;;;16.58;49.99;102054.31;5029545;28;20037;-73
2024/01/24 10:38:31;;;;;;;27.15;4.85;;;;;;;16.00;50.05;102022.25;5024455;28;20083;-74
2024/01/24 10:41:01;;;;;;;28.65;4.50;;;;;;;16.20;50.80;102047.19;5034016;28;20063;-72
2024/01/24 10:43:27;;;;;;;21.20;4.82;;;;;;;15.71;50.99;102047.50;5028463;28;20257;-72
2024/01/24 10:45:53;;;;;;;17.27;4.47;;;;;;;15.72;51.36;102041.25;5008989;28;20036;-75
2024/01/24 10:48:19;;;;;;;27.23;5.00;;;;;;;15.53;51.13;102038.47;5002780;28;20068;-76
2024/01/24 10:50:45;;;;;;;26.13;4.90;;;;;;;14.91;53.60;102035.66;5006178;28;20390;-76
2024/01/24 10:53:12;;;;;;;27.85;4.88;;;;;;;14.70;53.59;102051.53;5026085;28;20025;-78
2024/01/24 10:55:38;;;;;;;22.98;4.45;;;;;;;14.79;54.05;102061.84;5024893;28;20561;-75
2024/01/24 10:58:03;;;;;;;17.60;3.78;;;;;;;14.86;53.21;102065.13;5026247;28;20022;-75
2024/01/24 11:00:29;;;;;;;23.63;3.95;;;;;;;14.83;53.13;102067.03;5029721;28;20033;-75
2024/01/24 11:02:56;;;;;;;31.48;4.45;;;;;;;14.82;52.80;102068.81;5020910;28;20029;-75
2024/01/24 11:05:29;;;;;;;28.35;5.68;;;;;;;14.71;53.65;102085.22;5014423;28;20036;-75
2024/01/24 11:08:01;;;;;;;27.55;5.18;;;;;;;14.78;53.96;102076.09;5029489;28;20038;-75
2024/01/24 11:10:35;;;;;;;21.25;4.20;;;;;;;14.62;54.03;102074.91;5025236;28;20384;-75
2024/01/24 11:13:04;;;;;;;19.83;5.03;;;;;;;14.49;54.16;102070.97;5025048;28;20538;-76